Port Charlotte, FL (33952)

5:26 PM EDT on July 27, 2016 (GMT -0400)
KFLPORTC21 | | Change Station

Elev 13 ft 26.99 °N, 82.07 °W | Updated 35 seconds ago

Overcast
Overcast
88.2 °F
Feels Like 98 °F
N
5.8
Wind Variable Wind from North
Gusts 100.1 mph

Today
High -- | Low -- °F
--% Chance of Precip.
Yesterday
High -- | Low -- °F
Precip. -- in
Pressure 30.02 in
Visibility 4.0 miles
Clouds Few 600 ft
Scattered Clouds 4900 ft
Mostly Cloudy 6000 ft
Heat Index 98 °F
Dew Point 75 °F
Humidity 65%
Rainfall 0.03 in
Snow Depth Not available.
6:50 AM 8:19 PM
Last Quarter, 39% visible
SPECI KPGD 272111Z AUTO 26008KT 4SM -RA FEW006 SCT049 BKN060 30/24 A3002 RMK AO2 LTG DSNT W AND NW RAB01 P0004 T03000244
Pressure 30.02 in
Visibility 4.0 miles
Clouds Few 600 ft
Scattered Clouds 4900 ft
Mostly Cloudy 6000 ft
Heat Index 98 °F
Dew Point 75 °F
Humidity 65%
Rainfall 0.03 in
Snow Depth Not available.
6:50 AM 8:19 PM
Last Quarter, 39% visible
SPECI KPGD 272111Z AUTO 26008KT 4SM -RA FEW006 SCT049 BKN060 30/24 A3002 RMK AO2 LTG DSNT W AND NW RAB01 P0004 T03000244

10-Day Weather Forecast

Almanac

Astronomy

Jul. 27, 2016 Rise Set
Actual Time
Civil Twilight
Nautical Twilight
Astronomical Twilight
Moon
Length of Visible Light
Length of Day
Tomorrow will be .
, % of the Moon is Illuminated

Today's Extremes

State Highs State Lows

Community

WunderPhotos

Upload Photos

1,927,941 photos uploaded!

WunderBlog® & News

Nearby

Air Quality

  Air Quality AQ Index Pollutant
Not available.

Snow Depth

Station Depth Elevation

Earthquake Activity

City Distance Mag. Time & Date
Minimum magnitude displayed is 2.5.

Coastal Water Temperatures

Place Temperature

Stations

Nearby Weather Stations

Station Location Temp. Windchill Dew Point Humidity Wind Precip. Elev Updated Type
                   

Watches & Warnings

There are currently no watches in effect.